LFRG

Deauville-Saint-Gatien Airport

Airport
ICAO code
LFRG
IATA Code
DOL
Summary
ICAO Region
EUR
ICAO Territory
Location

, Basse-Normandie

Serving
Deauville
Elevation
479 ft
Coordinates
49° 21' 55" N , 0° 9' 16" E
Metar
Observation
LFRG 012330Z AUTO 07003KT 2400 R30/1300U BR BKN017 01/01 Q1026
Station
ST GATIEN
Date/Time
2022-12-01 23:30:00
Wind direction
70°
Wind speed
03 kts
Lowest cloud amount
broken clouds
Temperature
30°C
Dew point
13°C
Humidity
35%
QNH
1026 hPa
Weather condition
n/a

Runways

Designator Length Width Surface Rops
12/30 2550 45 ASP Yes/Yes

Airport map

Aerial View

SKYbrary Partners:

Safety knowledge contributed by: